Time;durP1;ratioP1;P1;durP2;ratioP2;P2;SDS_P1;SDS_P2;PMS_P1;PMS_P2;Temp;Humidity;BMP_temperature;BMP_pressure;BME280_temperature;BME280_humidity;BME280_pressure;Samples;Min_cycle;Max_cycle;Signal;HPM_P1;HPM_P2
2021/03/03 00:00:49;;;;;;;14.87;11.70;;;5.90;71.40;;;;;;6174356;28;20965;-57
2021/03/03 00:03:51;;;;;;;14.20;10.53;;;5.90;71.50;;;;;;6175139;28;20480;-60
2021/03/03 00:06:54;;;;;;;15.10;12.20;;;5.80;71.40;;;;;;6194642;28;21004;-58
2021/03/03 00:09:56;;;;;;;15.43;11.47;;;5.80;71.40;;;;;;6195039;28;20796;-60
2021/03/03 00:12:59;;;;;;;15.63;12.00;;;5.80;71.40;;;;;;6198191;28;20465;-58
2021/03/03 00:16:01;;;;;;;13.97;10.93;;;5.80;71.40;;;;;;6198156;28;20485;-57
2021/03/03 00:19:04;;;;;;;17.03;13.30;;;5.70;72.10;;;;;;6198251;28;20548;-60
2021/03/03 00:22:06;;;;;;;14.77;10.93;;;5.70;72.20;;;;;;6198324;28;20976;-59
2021/03/03 00:25:09;;;;;;;14.80;10.30;;;5.60;72.40;;;;;;6198125;28;20464;-57
2021/03/03 00:28:12;;;;;;;13.27;11.47;;;5.60;72.90;;;;;;6197987;28;20976;-61
2021/03/03 00:31:14;;;;;;;15.07;11.47;;;5.60;73.20;;;;;;6193493;28;20462;-60
2021/03/03 00:34:17;;;;;;;16.20;11.80;;;5.60;73.50;;;;;;6174169;28;21157;-61
2021/03/03 00:37:19;;;;;;;15.27;12.20;;;5.50;74.70;;;;;;6174002;28;20501;-61
2021/03/03 00:40:21;;;;;;;19.07;12.80;;;5.50;74.60;;;;;;6178430;28;20469;-59
2021/03/03 00:43:24;;;;;;;21.40;15.30;;;5.50;74.60;;;;;;6178345;28;20483;-57
2021/03/03 00:46:26;;;;;;;15.57;12.17;;;5.30;74.60;;;;;;6174007;28;20489;-57
2021/03/03 00:49:30;;;;;;;17.27;13.57;;;5.30;74.80;;;;;;6180799;28;20485;-57
2021/03/03 00:52:32;;;;;;;18.80;12.40;;;5.30;75.20;;;;;;6196356;28;20464;-56
2021/03/03 00:55:34;;;;;;;18.67;12.30;;;5.30;76.20;;;;;;6201168;28;20472;-56
2021/03/03 00:58:37;;;;;;;17.37;12.67;;;5.30;76.20;;;;;;6201167;28;20469;-57
2021/03/03 01:01:39;;;;;;;16.70;11.73;;;5.30;76.70;;;;;;6201458;28;20822;-57
2021/03/03 01:04:41;;;;;;;16.53;11.70;;;5.30;76.70;;;;;;6202359;28;20487;-57
2021/03/03 01:07:43;;;;;;;15.97;11.70;;;5.30;76.70;;;;;;6204212;28;20818;-57
2021/03/03 01:10:46;;;;;;;15.10;11.30;;;5.30;76.70;;;;;;6203543;28;20816;-57
2021/03/03 01:13:52;;;;;;;22.40;12.27;;;5.30;76.60;;;;;;6204138;28;20481;-57
2021/03/03 01:16:54;;;;;;;16.10;10.87;;;5.20;76.80;;;;;;6203784;28;20480;-57
2021/03/03 01:19:56;;;;;;;14.87;10.87;;;5.20;77.30;;;;;;6204185;28;20552;-57
2021/03/03 01:22:59;;;;;;;15.20;11.30;;;5.30;77.30;;;;;;6204066;28;20483;-57
2021/03/03 01:26:01;;;;;;;13.70;11.87;;;5.10;77.30;;;;;;6203712;28;20496;-58
2021/03/03 01:29:05;;;;;;;16.73;12.73;;;5.10;77.50;;;;;;6203816;28;20468;-57
2021/03/03 01:32:10;;;;;;;13.90;12.30;;;5.10;77.80;;;;;;6204077;28;20488;-58
2021/03/03 01:35:13;;;;;;;12.67;11.33;;;5.10;78.00;;;;;;6203973;28;20472;-57
2021/03/03 01:38:16;;;;;;;14.03;10.83;;;5.00;77.90;;;;;;6204062;28;20452;-57
2021/03/03 01:41:18;;;;;;;15.93;10.90;;;5.00;78.10;;;;;;6203918;28;20451;-57
2021/03/03 01:44:21;;;;;;;15.87;12.03;;;5.00;78.30;;;;;;6203802;28;20441;-57
2021/03/03 01:47:23;;;;;;;14.53;11.90;;;5.00;78.50;;;;;;6199334;28;20992;-57
2021/03/03 01:50:26;;;;;;;14.57;10.53;;;4.90;78.50;;;;;;6203265;28;20548;-57
2021/03/03 01:53:29;;;;;;;13.60;10.40;;;4.90;78.70;;;;;;6203569;28;20457;-57
2021/03/03 01:56:31;;;;;;;13.63;11.27;;;4.90;79.20;;;;;;6203204;28;20464;-57
2021/03/03 01:59:34;;;;;;;13.20;11.43;;;4.90;80.30;;;;;;6203516;28;20487;-57
2021/03/03 02:02:36;;;;;;;15.50;10.77;;;4.90;79.60;;;;;;6203892;28;20465;-58
2021/03/03 02:05:39;;;;;;;16.60;11.53;;;4.80;79.80;;;;;;6203325;28;20956;-57
2021/03/03 02:08:47;;;;;;;14.03;11.00;;;4.80;80.20;;;;;;6202984;28;20813;-57
2021/03/03 02:11:55;;;;;;;20.00;11.93;;;4.80;80.30;;;;;;6203044;28;20469;-57
2021/03/03 02:15:02;;;;;;;12.80;9.90;;;4.80;80.70;;;;;;6202722;28;20485;-61
2021/03/03 02:18:07;;;;;;;12.27;10.40;;;4.70;80.80;;;;;;6203289;28;20465;-59
2021/03/03 02:21:16;;;;;;;15.17;11.47;;;4.70;81.20;;;;;;6202764;28;20956;-59
2021/03/03 02:24:22;;;;;;;17.50;12.33;;;4.60;81.30;;;;;;6202878;28;20477;-59
2021/03/03 02:27:25;;;;;;;17.60;12.57;;;4.60;81.20;;;;;;6202565;28;20956;-57
2021/03/03 02:30:29;;;;;;;20.30;14.00;;;4.60;81.40;;;;;;6202280;28;20910;-59
2021/03/03 02:33:32;;;;;;;16.73;13.00;;;4.50;81.60;;;;;;6202751;28;20812;-58
2021/03/03 02:36:35;;;;;;;16.77;12.90;;;4.50;81.90;;;;;;6202171;28;20484;-58
2021/03/03 02:39:38;;;;;;;16.50;12.70;;;4.50;82.40;;;;;;6202319;28;20469;-59
2021/03/03 02:42:42;;;;;;;21.67;14.67;;;4.50;82.80;;;;;;6202376;28;20465;-58
2021/03/03 02:45:48;;;;;;;17.13;10.90;;;4.50;83.00;;;;;;6202298;28;20567;-62
2021/03/03 02:48:51;;;;;;;14.93;11.20;;;4.50;83.00;;;;;;6202367;28;20488;-59
2021/03/03 02:51:53;;;;;;;17.97;11.63;;;4.40;83.30;;;;;;6201338;28;20481;-58
2021/03/03 02:54:55;;;;;;;10.30;9.20;;;4.30;83.70;;;;;;6202337;28;20496;-59
2021/03/03 02:58:00;;;;;;;16.90;10.80;;;4.30;84.60;;;;;;6201804;28;20492;-58
2021/03/03 03:01:04;;;;;;;12.87;9.50;;;4.30;85.30;;;;;;6201420;28;20461;-58
2021/03/03 03:04:10;;;;;;;12.93;10.43;;;4.40;85.50;;;;;;6201838;28;20480;-58
2021/03/03 03:07:18;;;;;;;15.50;10.27;;;4.40;85.90;;;;;;6202107;28;20491;-58
2021/03/03 03:10:22;;;;;;;15.17;10.80;;;4.30;86.20;;;;;;6201600;28;20990;-58
2021/03/03 03:13:29;;;;;;;13.03;9.60;;;4.30;86.70;;;;;;6201539;28;20481;-58
2021/03/03 03:16:32;;;;;;;13.77;9.83;;;4.30;87.00;;;;;;6201024;28;20496;-58
2021/03/03 03:19:38;;;;;;;13.80;11.00;;;4.30;87.30;;;;;;6201497;28;20538;-58
2021/03/03 03:22:41;;;;;;;12.50;9.53;;;4.30;87.60;;;;;;6201432;28;20821;-58
2021/03/03 03:25:45;;;;;;;13.40;10.10;;;4.30;88.00;;;;;;6201189;28;20477;-58
2021/03/03 03:28:49;;;;;;;14.33;10.73;;;4.30;88.00;;;;;;6201303;28;20476;-58
2021/03/03 03:31:53;;;;;;;13.77;11.10;;;4.30;88.80;;;;;;6201124;28;20929;-58
2021/03/03 03:34:55;;;;;;;11.10;9.77;;;4.30;88.10;;;;;;6201578;28;20473;-58
2021/03/03 03:38:00;;;;;;;10.93;9.50;;;4.30;88.40;;;;;;6201380;28;20492;-58
2021/03/03 03:41:05;;;;;;;10.93;9.17;;;4.30;88.20;;;;;;6201178;28;20469;-59
2021/03/03 03:44:11;;;;;;;16.57;9.87;;;4.30;88.40;;;;;;6201185;28;20798;-58
2021/03/03 03:47:16;;;;;;;12.50;9.50;;;4.30;88.50;;;;;;6202291;28;20464;-58
2021/03/03 03:50:20;;;;;;;12.40;9.80;;;4.20;88.00;;;;;;6224065;28;20429;-59
2021/03/03 03:53:23;;;;;;;11.60;10.40;;;4.10;88.00;;;;;;6200870;28;20773;-57
2021/03/03 03:56:25;;;;;;;12.03;9.30;;;4.10;88.40;;;;;;6200894;28;20457;-58
2021/03/03 03:59:28;;;;;;;13.67;10.13;;;4.10;89.20;;;;;;6200964;28;20461;-57
2021/03/03 04:02:30;;;;;;;14.60;10.57;;;4.10;89.50;;;;;;6201187;28;20464;-57
2021/03/03 04:05:32;;;;;;;16.10;10.00;;;4.10;89.40;;;;;;6201297;28;20480;-57
2021/03/03 04:08:35;;;;;;;15.53;10.30;;;4.00;89.50;;;;;;6200545;28;20473;-58
2021/03/03 04:11:37;;;;;;;13.27;9.93;;;3.90;90.00;;;;;;6200683;28;20816;-58
2021/03/03 04:14:43;;;;;;;14.37;10.03;;;3.80;90.50;;;;;;6205513;28;20816;-59
2021/03/03 04:17:45;;;;;;;11.80;9.20;;;3.80;90.80;;;;;;6205438;28;20488;-59
2021/03/03 04:20:49;;;;;;;13.33;9.90;;;3.80;91.00;;;;;;6205604;28;20476;-58
2021/03/03 04:23:51;;;;;;;15.13;11.13;;;3.80;91.20;;;;;;6205564;28;20480;-58
2021/03/03 04:26:53;;;;;;;14.70;10.33;;;3.70;91.40;;;;;;6205359;28;20480;-58
2021/03/03 04:29:56;;;;;;;13.60;10.10;;;3.70;91.50;;;;;;6205676;28;20476;-58
2021/03/03 04:32:59;;;;;;;11.73;9.53;;;3.80;91.40;;;;;;6205544;28;20477;-58
2021/03/03 04:36:01;;;;;;;13.43;9.60;;;3.80;91.30;;;;;;6205356;28;20481;-59
2021/03/03 04:39:04;;;;;;;18.23;9.90;;;3.70;91.30;;;;;;6205387;28;20951;-58
2021/03/03 04:42:06;;;;;;;13.87;10.93;;;3.70;91.40;;;;;;6205134;28;20800;-58
2021/03/03 04:45:11;;;;;;;15.10;11.50;;;3.70;91.50;;;;;;6204959;28;20491;-59
2021/03/03 04:48:13;;;;;;;16.20;12.17;;;3.70;91.70;;;;;;6205294;28;20480;-58
2021/03/03 04:51:16;;;;;;;16.60;11.27;;;3.70;92.00;;;;;;6205081;28;20473;-58
2021/03/03 04:54:19;;;;;;;16.03;11.33;;;3.60;92.30;;;;;;6205080;28;20468;-58
2021/03/03 04:57:21;;;;;;;15.87;12.23;;;3.50;92.60;;;;;;6204642;28;20487;-58
2021/03/03 05:00:25;;;;;;;18.97;14.03;;;3.50;92.70;;;;;;6204735;28;20473;-58
2021/03/03 05:03:27;;;;;;;19.53;14.20;;;3.50;92.90;;;;;;6205208;28;20477;-59
2021/03/03 05:06:30;;;;;;;18.73;12.50;;;3.50;93.30;;;;;;6204799;28;20798;-58
2021/03/03 05:09:32;;;;;;;18.17;13.77;;;3.40;93.40;;;;;;6204438;28;20473;-59
2021/03/03 05:12:35;;;;;;;15.97;12.13;;;3.40;93.70;;;;;;6204651;28;20476;-58
2021/03/03 05:15:38;;;;;;;18.80;13.90;;;3.40;93.90;;;;;;6204189;28;20485;-58
2021/03/03 05:18:40;;;;;;;16.63;13.60;;;3.40;94.00;;;;;;6204448;28;20489;-58
2021/03/03 05:21:42;;;;;;;17.03;13.03;;;3.30;94.50;;;;;;6204635;28;20477;-58
2021/03/03 05:24:44;;;;;;;17.10;12.90;;;3.30;94.30;;;;;;6203418;28;20476;-58
2021/03/03 05:27:46;;;;;;;16.60;12.70;;;3.30;94.60;;;;;;6204016;28;20469;-58
2021/03/03 05:30:52;;;;;;;16.33;12.30;;;3.30;94.60;;;;;;6203896;28;20484;-58
2021/03/03 05:33:55;;;;;;;15.77;13.27;;;3.30;94.60;;;;;;6204344;28;20469;-58
2021/03/03 05:36:58;;;;;;;15.83;11.90;;;3.30;94.60;;;;;;6203916;28;20488;-58
2021/03/03 05:40:00;;;;;;;15.83;12.93;;;3.30;94.60;;;;;;6203852;28;20576;-58
2021/03/03 05:43:02;;;;;;;14.23;11.73;;;3.30;94.50;;;;;;6203654;28;20480;-58
2021/03/03 05:46:06;;;;;;;15.77;13.40;;;3.30;94.50;;;;;;6203490;28;20468;-58
2021/03/03 05:49:15;;;;;;;18.40;12.83;;;3.30;94.60;;;;;;6203406;28;20487;-58
2021/03/03 05:52:19;;;;;;;15.13;12.67;;;3.30;94.90;;;;;;6203732;28;20461;-58
2021/03/03 05:55:21;;;;;;;13.30;11.77;;;3.30;95.10;;;;;;6203209;28;20483;-58
2021/03/03 05:58:27;;;;;;;17.50;13.20;;;3.30;95.50;;;;;;6203914;28;20530;-58
2021/03/03 06:01:31;;;;;;;15.50;12.27;;;3.30;95.70;;;;;;6203539;28;20469;-58
2021/03/03 06:04:54;;;;;;;17.30;12.90;;;3.30;95.70;;;;;;6203323;28;20485;-59
2021/03/03 06:07:56;;;;;;;13.80;11.73;;;3.30;95.80;;;;;;6194470;28;20492;-58
2021/03/03 06:10:59;;;;;;;18.63;12.93;;;3.40;95.80;;;;;;6202799;28;20476;-58
2021/03/03 06:14:02;;;;;;;17.37;12.30;;;3.40;95.90;;;;;;6202764;28;20484;-58
2021/03/03 06:17:06;;;;;;;24.87;13.10;;;3.40;96.20;;;;;;6202240;28;20484;-58
2021/03/03 06:20:10;;;;;;;14.20;11.87;;;3.50;96.20;;;;;;6202789;28;20458;-58
2021/03/03 06:23:14;;;;;;;15.80;12.83;;;3.50;96.30;;;;;;6202780;28;20445;-58
2021/03/03 06:26:16;;;;;;;15.70;12.70;;;3.60;96.50;;;;;;6202510;28;20465;-58
2021/03/03 06:29:18;;;;;;;14.00;11.10;;;3.60;96.40;;;;;;6202523;28;20774;-58
2021/03/03 06:32:21;;;;;;;18.50;14.00;;;3.70;96.40;;;;;;6202655;28;20451;-57
2021/03/03 06:35:37;;;;;;;15.17;11.63;;;3.70;96.20;;;;;;6201499;28;20776;-58
2021/03/03 06:38:39;;;;;;;22.67;13.27;;;3.70;96.30;;;;;;6202667;28;20470;-58
2021/03/03 06:41:42;;;;;;;18.43;11.77;;;3.80;96.50;;;;;;6202201;28;20469;-58
2021/03/03 06:44:49;;;;;;;14.10;11.80;;;3.60;96.60;;;;;;6202292;28;20472;-58
2021/03/03 06:47:52;;;;;;;16.47;13.00;;;3.60;97.30;;;;;;6202647;28;20483;-58
2021/03/03 06:50:54;;;;;;;18.37;12.70;;;3.70;97.20;;;;;;6202512;28;20465;-58
2021/03/03 06:53:59;;;;;;;17.10;12.33;;;3.80;97.20;;;;;;6202115;28;20809;-57
2021/03/03 06:57:04;;;;;;;19.87;11.73;;;3.80;97.00;;;;;;6200274;28;20473;-57
2021/03/03 07:00:08;;;;;;;14.97;11.60;;;3.90;96.90;;;;;;6200524;28;20476;-57
2021/03/03 07:03:28;;;;;;;19.00;13.90;;;4.00;96.90;;;;;;6200836;28;20913;-58
2021/03/03 07:06:32;;;;;;;15.63;11.70;;;4.00;96.70;;;;;;6201000;28;20481;-57
2021/03/03 07:09:40;;;;;;;15.83;11.87;;;4.10;96.70;;;;;;6192577;28;20480;-57
2021/03/03 07:12:48;;;;;;;15.67;11.30;;;4.20;96.60;;;;;;6201706;28;21010;-57
2021/03/03 07:15:51;;;;;;;15.40;11.50;;;4.30;96.40;;;;;;6201026;28;20576;-57
2021/03/03 07:18:54;;;;;;;13.77;12.00;;;4.50;96.10;;;;;;6201407;28;20487;-58
2021/03/03 07:21:57;;;;;;;16.67;11.53;;;4.60;95.80;;;;;;6201758;28;20483;-57
2021/03/03 07:25:01;;;;;;;17.03;12.17;;;4.70;95.60;;;;;;6201529;28;20488;-57
2021/03/03 07:28:07;;;;;;;24.07;12.67;;;4.80;95.40;;;;;;6201303;28;20484;-57
2021/03/03 07:31:10;;;;;;;16.87;12.43;;;4.90;95.20;;;;;;6201027;28;20585;-57
2021/03/03 07:34:13;;;;;;;16.07;13.27;;;5.00;94.90;;;;;;6201100;28;20484;-58
2021/03/03 07:37:19;;;;;;;20.43;11.87;;;5.10;94.70;;;;;;6201574;28;20485;-57
2021/03/03 07:40:25;;;;;;;24.17;12.27;;;5.20;94.50;;;;;;6201262;28;20473;-57
2021/03/03 07:43:31;;;;;;;18.73;13.87;;;5.30;94.40;;;;;;6201180;28;20488;-56
2021/03/03 07:46:34;;;;;;;14.20;12.23;;;5.50;94.20;;;;;;6200594;28;20468;-57
2021/03/03 07:49:39;;;;;;;15.77;13.00;;;5.50;93.80;;;;;;6201157;28;20484;-57
2021/03/03 07:52:44;;;;;;;17.57;12.00;;;5.60;93.90;;;;;;6201339;28;20470;-57
2021/03/03 07:55:47;;;;;;;20.23;13.37;;;5.80;93.80;;;;;;6200253;28;20492;-57
2021/03/03 07:58:49;;;;;;;15.70;11.43;;;6.00;93.50;;;;;;6200404;28;20481;-57
2021/03/03 08:01:59;;;;;;;19.57;12.73;;;6.10;92.90;;;;;;6201229;28;20819;-57
2021/03/03 08:05:03;;;;;;;14.57;12.00;;;6.40;92.50;;;;;;6199884;28;20486;-57
2021/03/03 08:08:22;;;;;;;16.27;11.50;;;6.60;91.90;;;;;;6200341;28;20468;-57
2021/03/03 08:11:27;;;;;;;18.13;12.27;;;6.90;91.10;;;;;;6195112;28;20906;-57
2021/03/03 08:14:39;;;;;;;14.57;11.53;;;7.10;90.50;;;;;;6200181;28;20547;-56
2021/03/03 08:17:42;;;;;;;16.10;11.37;;;7.40;89.40;;;;;;6199631;28;20481;-57
2021/03/03 08:20:48;;;;;;;15.03;11.83;;;7.70;87.70;;;;;;6198518;28;20472;-57
2021/03/03 08:23:51;;;;;;;15.47;11.27;;;8.00;87.20;;;;;;6200028;28;20841;-57
2021/03/03 08:26:53;;;;;;;28.70;13.10;;;8.30;84.30;;;;;;6198653;28;20555;-56
2021/03/03 08:30:10;;;;;;;19.60;12.60;;;8.60;83.40;;;;;;6197373;28;20686;-57
2021/03/03 08:33:30;;;;;;;17.33;13.07;;;8.90;81.10;;;;;;6195946;28;20485;-57
2021/03/03 08:36:57;;;;;;;19.63;13.03;;;9.50;79.90;;;;;;6196788;28;20647;-58
2021/03/03 08:40:00;;;;;;;19.40;12.23;;;10.30;77.40;;;;;;6199086;28;20473;-57
2021/03/03 08:43:33;;;;;;;20.47;12.77;;;14.60;66.70;;;;;;6199603;28;20465;-57
2021/03/03 08:46:46;;;;;;;15.50;13.90;;;20.40;47.40;;;;;;6200211;28;20484;-57
2021/03/03 08:49:49;;;;;;;15.80;14.07;;;25.00;35.30;;;;;;6200333;28;20309;-57
2021/03/03 08:53:25;;;;;;;18.80;14.53;;;27.50;29.20;;;;;;6200345;28;20240;-57
2021/03/03 08:56:36;;;;;;;16.63;14.93;;;29.40;26.50;;;;;;6173661;28;20234;-58
2021/03/03 08:59:40;;;;;;;15.60;14.03;;;31.80;23.80;;;;;;6176247;28;20763;-59
2021/03/03 09:02:42;;;;;;;16.35;14.32;;;33.70;22.10;;;;;;6178315;28;20684;-58
2021/03/03 09:05:45;;;;;;;17.35;15.55;;;35.30;20.30;;;;;;6177980;28;20239;-57
2021/03/03 09:08:47;;;;;;;16.55;15.10;;;36.10;19.10;;;;;;6178289;28;20239;-57
2021/03/03 09:12:02;;;;;;;15.85;14.40;;;37.00;18.40;;;;;;6177576;28;20566;-58
2021/03/03 09:15:07;;;;;;;18.55;15.85;;;37.80;17.60;;;;;;6178134;28;20257;-58
2021/03/03 09:18:18;;;;;;;16.30;14.43;;;38.20;17.10;;;;;;6177571;28;20234;-59
2021/03/03 09:21:20;;;;;;;17.08;14.65;;;38.50;16.70;;;;;;6178001;28;20682;-58
2021/03/03 09:24:23;;;;;;;15.57;14.10;;;39.30;16.30;;;;;;6177775;28;20236;-58
2021/03/03 09:27:26;;;;;;;14.90;12.88;;;40.30;15.80;;;;;;6196000;28;20233;-58
2021/03/03 09:30:38;;;;;;;14.25;12.02;;;39.90;15.40;;;;;;6191723;28;20283;-59
2021/03/03 09:33:43;;;;;;;13.10;11.90;;;40.60;15.10;;;;;;6177104;28;20712;-59
2021/03/03 09:36:56;;;;;;;15.85;13.73;;;41.00;14.90;;;;;;6177323;28;20285;-59
2021/03/03 09:39:59;;;;;;;12.80;11.60;;;41.60;14.60;;;;;;6177106;28;20237;-58
2021/03/03 09:43:03;;;;;;;13.05;11.82;;;41.90;14.40;;;;;;6177190;28;20237;-59
2021/03/03 09:46:05;;;;;;;12.73;11.43;;;42.20;14.10;;;;;;6176850;28;20727;-59
2021/03/03 09:49:20;;;;;;;12.35;10.25;;;43.10;13.90;;;;;;6177026;28;20677;-59
2021/03/03 09:52:25;;;;;;;12.15;10.95;;;42.70;13.30;;;;;;6177234;28;20230;-60
2021/03/03 09:55:30;;;;;;;12.23;10.95;;;42.40;13.60;;;;;;6192042;28;20250;-59
2021/03/03 09:58:33;;;;;;;12.35;11.05;;;43.10;13.30;;;;;;6177134;28;20237;-59
2021/03/03 10:01:35;;;;;;;11.88;10.68;;;43.80;13.20;;;;;;6176715;28;20236;-59
2021/03/03 10:04:40;;;;;;;12.95;11.60;;;44.00;13.10;;;;;;6177124;28;20233;-58
2021/03/03 10:07:57;;;;;;;12.95;10.32;;;44.80;13.00;;;;;;6177227;28;20665;-59
2021/03/03 10:11:02;;;;;;;11.23;10.32;;;45.70;12.50;;;;;;6176209;28;20230;-61
2021/03/03 10:14:06;;;;;;;11.00;10.00;;;45.50;12.40;;;;;;6176554;28;20552;-59
2021/03/03 10:17:08;;;;;;;12.65;10.13;;;45.40;12.40;;;;;;6177659;28;20234;-60
2021/03/03 10:20:28;;;;;;;11.15;10.25;;;45.80;12.30;;;;;;6169478;28;20216;-61
2021/03/03 10:23:34;;;;;;;11.30;10.38;;;45.70;12.30;;;;;;6187105;28;20570;-61
2021/03/03 10:26:41;;;;;;;13.90;12.48;;;45.70;12.20;;;;;;6177707;28;20233;-60
2021/03/03 10:29:45;;;;;;;12.07;11.10;;;45.40;12.30;;;;;;6177799;28;20584;-60
2021/03/03 10:32:47;;;;;;;11.27;10.38;;;45.90;12.30;;;;;;6178185;28;20229;-58
2021/03/03 10:35:51;;;;;;;12.50;9.65;;;46.40;12.00;;;;;;6177197;28;20233;-59
2021/03/03 10:38:55;;;;;;;10.88;9.57;;;46.60;11.80;;;;;;6176136;28;20230;-60
2021/03/03 10:42:00;;;;;;;11.05;9.70;;;44.20;12.50;;;;;;6176922;28;20254;-58
2021/03/03 10:45:05;;;;;;;11.88;10.27;;;43.10;13.10;;;;;;6177650;28;20233;-59
2021/03/03 10:48:08;;;;;;;11.30;8.85;;;44.20;12.70;;;;;;6175597;28;20229;-59
2021/03/03 10:51:12;;;;;;;10.52;9.52;;;45.60;12.60;;;;;;6175878;28;20297;-61
2021/03/03 10:54:15;;;;;;;10.60;9.73;;;46.60;12.10;;;;;;6176939;28;20228;-59
2021/03/03 10:57:17;;;;;;;10.15;9.20;;;47.50;12.20;;;;;;6176588;28;20304;-59
2021/03/03 11:00:21;;;;;;;9.90;9.10;;;47.60;11.60;;;;;;6177593;28;20567;-59
2021/03/03 11:03:24;;;;;;;10.77;9.75;;;47.40;11.60;;;;;;6173686;28;20232;-59
2021/03/03 11:06:28;;;;;;;8.93;8.23;;;46.90;11.50;;;;;;6174424;28;20246;-62
2021/03/03 11:09:30;;;;;;;15.18;9.05;;;47.00;11.60;;;;;;6175537;28;20236;-60
2021/03/03 11:12:35;;;;;;;9.52;8.82;;;46.40;12.10;;;;;;6174782;28;20656;-60
2021/03/03 11:15:41;;;;;;;10.07;9.18;;;47.60;11.70;;;;;;6174880;28;20252;-59
2021/03/03 11:18:44;;;;;;;9.30;8.60;;;48.40;11.50;;;;;;6174992;28;20693;-60
2021/03/03 11:21:47;;;;;;;9.85;8.98;;;49.00;11.10;;;;;;6173798;28;20315;-59
2021/03/03 11:24:49;;;;;;;10.07;9.07;;;49.30;10.90;;;;;;6170323;28;20233;-59
2021/03/03 11:27:51;;;;;;;9.50;8.70;;;49.70;10.80;;;;;;6174755;28;20321;-59
2021/03/03 11:30:54;;;;;;;9.57;8.45;;;50.20;10.50;;;;;;6174756;28;20245;-60
2021/03/03 11:34:00;;;;;;;9.20;8.40;;;49.20;10.50;;;;;;6174742;28;20226;-59
2021/03/03 11:37:02;;;;;;;9.25;8.50;;;48.50;10.60;;;;;;6183176;28;20236;-59
2021/03/03 11:40:08;;;;;;;9.60;8.77;;;48.10;11.00;;;;;;6174376;28;20244;-59
2021/03/03 11:43:10;;;;;;;9.40;8.55;;;47.00;11.20;;;;;;6176712;28;20218;-60
2021/03/03 11:46:14;;;;;;;9.43;8.50;;;45.90;11.20;;;;;;6176809;28;20225;-59
2021/03/03 11:49:16;;;;;;;8.68;7.93;;;45.50;11.40;;;;;;6174198;28;20245;-61
2021/03/03 11:52:18;;;;;;;8.70;8.00;;;46.80;11.50;;;;;;6174296;28;20225;-62
2021/03/03 11:55:21;;;;;;;9.48;8.68;;;47.30;11.10;;;;;;6174233;28;20242;-63
2021/03/03 11:58:29;;;;;;;8.35;7.65;;;47.00;11.00;;;;;;6174078;28;20686;-64
2021/03/03 12:01:39;;;;;;;8.27;7.57;;;46.50;11.30;;;;;;6172971;28;20229;-66
2021/03/03 12:04:42;;;;;;;9.43;8.50;;;47.10;11.10;;;;;;6175750;28;20234;-64
2021/03/03 12:07:44;;;;;;;8.43;7.82;;;45.60;11.20;;;;;;6174075;28;20704;-61
2021/03/03 12:10:47;;;;;;;9.23;8.43;;;45.10;11.60;;;;;;6177118;28;20244;-62
2021/03/03 12:13:49;;;;;;;8.82;8.02;;;45.40;11.60;;;;;;6172725;28;20240;-59
2021/03/03 12:16:52;;;;;;;9.82;9.02;;;45.80;11.40;;;;;;6174424;28;20229;-59
2021/03/03 12:19:55;;;;;;;9.40;8.50;;;46.30;11.40;;;;;;6192189;28;20240;-59
2021/03/03 12:22:57;;;;;;;8.52;7.82;;;46.40;11.40;;;;;;6197931;28;20576;-59
2021/03/03 12:26:02;;;;;;;8.70;7.47;;;46.70;11.10;;;;;;6194588;28;20237;-61
2021/03/03 12:29:05;;;;;;;7.90;7.40;;;45.90;11.10;;;;;;6180092;28;20237;-58
2021/03/03 12:32:08;;;;;;;7.30;6.80;;;45.70;10.90;;;;;;6161784;28;20322;-59
2021/03/03 12:35:12;;;;;;;7.05;6.45;;;46.50;11.00;;;;;;6178324;28;20238;-60
2021/03/03 12:38:14;;;;;;;7.50;6.90;;;46.50;10.50;;;;;;6189122;28;20221;-59
2021/03/03 12:41:16;;;;;;;8.95;7.82;;;46.00;10.70;;;;;;6202658;28;20209;-60
2021/03/03 12:44:19;;;;;;;9.18;7.75;;;45.10;11.20;;;;;;6199630;28;20555;-63
2021/03/03 12:47:22;;;;;;;9.05;8.25;;;45.40;10.80;;;;;;6183665;28;20222;-62
2021/03/03 12:50:24;;;;;;;7.93;7.30;;;45.00;11.20;;;;;;6182047;28;20329;-63
2021/03/03 12:53:27;;;;;;;7.93;7.10;;;46.20;10.70;;;;;;6183493;28;20241;-64
2021/03/03 12:56:30;;;;;;;7.82;7.03;;;46.30;10.70;;;;;;6178297;28;20234;-64
2021/03/03 12:59:32;;;;;;;8.07;7.28;;;46.30;10.80;;;;;;6177632;28;20340;-63
2021/03/03 13:02:36;;;;;;;7.50;6.90;;;46.00;10.80;;;;;;6186650;28;20238;-63
2021/03/03 13:05:38;;;;;;;7.95;7.25;;;46.70;10.80;;;;;;6177819;28;20292;-64
2021/03/03 13:08:41;;;;;;;8.70;7.88;;;46.40;10.60;;;;;;6178161;28;20240;-62
2021/03/03 13:11:43;;;;;;;9.15;7.65;;;45.50;11.00;;;;;;6178129;28;20222;-60
2021/03/03 13:14:45;;;;;;;8.60;7.90;;;43.50;11.70;;;;;;6189443;28;20236;-60
2021/03/03 13:17:50;;;;;;;8.48;7.78;;;42.50;11.90;;;;;;6177620;28;20238;-58
2021/03/03 13:20:53;;;;;;;7.70;6.78;;;41.70;12.40;;;;;;6177732;28;20316;-61
2021/03/03 13:23:56;;;;;;;7.50;6.75;;;42.30;12.10;;;;;;6177492;28;20233;-63
2021/03/03 13:26:58;;;;;;;7.47;6.78;;;42.70;11.90;;;;;;6179699;28;20226;-62
2021/03/03 13:30:00;;;;;;;8.77;7.97;;;42.60;11.80;;;;;;6178619;28;20264;-62
2021/03/03 13:33:04;;;;;;;8.10;7.40;;;42.70;11.90;;;;;;6170096;28;20229;-64
2021/03/03 13:36:07;;;;;;;8.70;7.85;;;42.10;12.40;;;;;;6179200;28;20269;-61
2021/03/03 13:39:11;;;;;;;7.95;7.15;;;41.00;12.70;;;;;;6177648;28;20230;-61
2021/03/03 13:42:13;;;;;;;10.05;7.75;;;39.00;13.70;;;;;;6177302;28;20238;-63
2021/03/03 13:45:15;;;;;;;8.65;7.30;;;37.40;14.00;;;;;;6176731;28;20233;-63
2021/03/03 13:48:19;;;;;;;8.60;7.18;;;36.10;14.80;;;;;;6177264;28;20454;-61
2021/03/03 13:51:24;;;;;;;8.57;7.82;;;33.50;16.00;;;;;;6188069;28;20584;-62
2021/03/03 13:54:26;;;;;;;7.38;6.68;;;32.20;17.00;;;;;;6201047;28;20239;-61
2021/03/03 13:57:28;;;;;;;7.90;7.10;;;30.20;18.10;;;;;;6193237;28;20237;-62
2021/03/03 14:00:30;;;;;;;9.30;6.67;;;27.80;19.50;;;;;;6176890;28;20563;-63
2021/03/03 14:03:34;;;;;;;7.67;6.97;;;25.40;21.60;;;;;;6177271;28;20371;-60
2021/03/03 14:06:39;;;;;;;8.47;6.83;;;24.30;22.70;;;;;;6176528;28;20704;-61
2021/03/03 14:09:41;;;;;;;7.47;6.67;;;23.70;23.10;;;;;;6177513;28;20239;-62
2021/03/03 14:12:43;;;;;;;7.37;6.67;;;23.00;23.50;;;;;;6176667;28;20222;-61
2021/03/03 14:15:45;;;;;;;6.90;6.20;;;22.40;24.10;;;;;;6177562;28;20272;-61
2021/03/03 14:18:49;;;;;;;7.70;6.93;;;21.80;24.80;;;;;;6176615;28;20328;-59
2021/03/03 14:21:52;;;;;;;6.80;6.20;;;21.20;28.60;;;;;;6176036;28;20251;-58
2021/03/03 14:24:57;;;;;;;8.33;6.53;;;20.80;27.10;;;;;;6197724;28;20628;-59
2021/03/03 14:27:59;;;;;;;6.43;5.73;;;20.90;26.20;;;;;;6200094;28;20324;-59
2021/03/03 14:31:01;;;;;;;6.67;5.80;;;20.90;26.40;;;;;;6200251;28;20226;-59
2021/03/03 14:34:05;;;;;;;7.43;5.97;;;20.60;26.10;;;;;;6200034;28;20316;-63
2021/03/03 14:37:07;;;;;;;6.60;6.00;;;20.20;26.00;;;;;;6195207;28;20253;-66
2021/03/03 14:40:11;;;;;;;6.80;5.43;;;20.00;26.30;;;;;;6199794;28;20686;-59
2021/03/03 14:43:13;;;;;;;8.90;5.47;;;19.90;26.40;;;;;;6196522;28;20237;-59
2021/03/03 14:46:15;;;;;;;8.97;5.67;;;19.60;26.40;;;;;;6197573;28;20237;-60
2021/03/03 14:49:19;;;;;;;5.90;5.30;;;19.30;26.80;;;;;;6173549;28;20239;-59
2021/03/03 14:52:21;;;;;;;7.63;5.80;;;19.20;26.90;;;;;;6174707;28;20705;-60
2021/03/03 14:55:23;;;;;;;6.53;5.67;;;19.00;27.70;;;;;;6174831;28;20687;-59
2021/03/03 14:58:25;;;;;;;8.00;5.53;;;18.90;27.30;;;;;;6173780;28;20229;-59
2021/03/03 15:01:30;;;;;;;8.97;5.57;;;18.90;27.20;;;;;;6175132;28;20227;-59
2021/03/03 15:04:33;;;;;;;7.27;5.40;;;18.80;27.40;;;;;;6181140;28;20242;-61
2021/03/03 15:07:36;;;;;;;6.93;5.17;;;18.70;27.50;;;;;;6174954;28;20231;-60
2021/03/03 15:10:39;;;;;;;7.97;5.27;;;18.50;27.50;;;;;;6177367;28;20238;-60
2021/03/03 15:13:42;;;;;;;7.87;5.33;;;18.50;28.30;;;;;;6199026;28;20239;-60
2021/03/03 15:16:44;;;;;;;6.40;5.27;;;18.50;27.90;;;;;;6198684;28;20248;-59
2021/03/03 15:19:47;;;;;;;7.07;5.33;;;18.50;28.00;;;;;;6198856;28;20328;-61
2021/03/03 15:22:49;;;;;;;8.83;5.27;;;18.40;28.10;;;;;;6198853;28;20233;-60
2021/03/03 15:25:52;;;;;;;6.20;5.50;;;18.40;28.10;;;;;;6198570;28;21334;-59
2021/03/03 15:28:56;;;;;;;7.57;5.50;;;18.40;28.30;;;;;;6198553;28;20803;-59
2021/03/03 15:31:58;;;;;;;7.47;6.17;;;18.20;28.00;;;;;;6181305;28;20226;-61
2021/03/03 15:35:06;;;;;;;8.40;6.73;;;18.20;28.10;;;;;;6185824;28;20242;-60
2021/03/03 15:38:08;;;;;;;7.00;5.33;;;18.20;28.30;;;;;;6198554;28;20476;-68
2021/03/03 15:41:10;;;;;;;8.63;5.73;;;18.10;28.10;;;;;;6198524;28;20558;-59
2021/03/03 15:44:12;;;;;;;6.37;5.50;;;18.20;28.40;;;;;;6192568;28;20470;-59
2021/03/03 15:47:15;;;;;;;10.57;5.97;;;18.00;28.40;;;;;;6174311;28;20685;-59